createdAt,value
2023-05-15T00:02:16.742Z,5.03
2023-05-15T00:04:45.847Z,4.90
2023-05-15T00:07:14.445Z,4.80
2023-05-15T00:09:43.070Z,4.80
2023-05-15T00:12:13.928Z,4.75
2023-05-15T00:14:42.493Z,4.70
2023-05-15T00:17:12.567Z,4.82
2023-05-15T00:19:41.127Z,4.70
2023-05-15T00:22:09.884Z,5.15
2023-05-15T00:24:38.548Z,5.45
2023-05-15T00:27:07.501Z,5.72
2023-05-15T00:29:37.402Z,6.05
2023-05-15T00:32:06.643Z,5.68
2023-05-15T00:34:35.125Z,5.28
2023-05-15T00:37:03.635Z,6.70
2023-05-15T00:39:33.643Z,5.78
2023-05-15T00:42:02.878Z,5.95
2023-05-15T00:44:32.632Z,5.93
2023-05-15T00:47:05.089Z,5.88
2023-05-15T00:49:35.799Z,5.80
2023-05-15T00:52:08.495Z,6.00
2023-05-15T00:54:37.159Z,5.57
2023-05-15T00:57:08.629Z,5.78
2023-05-15T00:59:40.489Z,6.13
2023-05-15T01:02:13.059Z,5.63
2023-05-15T01:04:41.598Z,6.07
2023-05-15T01:07:10.201Z,6.20
2023-05-15T01:09:43.379Z,6.30
2023-05-15T01:12:16.005Z,6.32
2023-05-15T01:14:44.514Z,6.15
2023-05-15T01:17:14.436Z,5.93
2023-05-15T01:19:44.728Z,6.32
2023-05-15T01:22:40.071Z,6.55
2023-05-15T01:25:54.291Z,6.95
2023-05-15T01:28:31.865Z,6.70
2023-05-15T01:31:07.107Z,6.55
2023-05-15T01:33:42.983Z,6.57
2023-05-15T01:36:16.678Z,6.13
2023-05-15T01:38:50.235Z,6.35
2023-05-15T01:41:28.037Z,6.22
2023-05-15T01:44:06.182Z,6.72
2023-05-15T01:46:39.919Z,6.28
2023-05-15T01:49:13.149Z,6.38
2023-05-15T01:51:45.046Z,6.70
2023-05-15T01:54:16.713Z,6.55
2023-05-15T01:56:46.853Z,6.60
2023-05-15T01:59:19.204Z,6.45
2023-05-15T02:01:47.987Z,7.03
2023-05-15T02:04:18.140Z,6.78
2023-05-15T02:06:47.602Z,7.10
2023-05-15T02:09:16.795Z,6.90
2023-05-15T02:11:46.026Z,7.13
2023-05-15T02:14:17.496Z,7.05
2023-05-15T02:16:47.489Z,6.95
2023-05-15T02:19:16.348Z,7.72
2023-05-15T02:21:44.790Z,7.57
2023-05-15T02:24:15.007Z,7.28
2023-05-15T02:26:54.370Z,7.53
2023-05-15T02:29:30.234Z,7.70
2023-05-15T02:32:04.588Z,7.25
2023-05-15T02:34:40.811Z,8.18
2023-05-15T02:37:12.956Z,7.82
2023-05-15T02:39:43.697Z,8.45
2023-05-15T02:42:15.480Z,7.82
2023-05-15T02:44:46.177Z,7.90
2023-05-15T02:47:16.228Z,8.20
2023-05-15T02:49:45.398Z,7.93
2023-05-15T02:52:14.748Z,8.30
2023-05-15T02:54:43.600Z,7.68
2023-05-15T02:57:12.071Z,7.80
2023-05-15T02:59:41.492Z,8.07
2023-05-15T03:02:11.392Z,19.90
2023-05-15T03:04:40.041Z,21.50
2023-05-15T03:07:08.620Z,11.85
2023-05-15T03:09:37.099Z,8.30
2023-05-15T03:12:05.963Z,9.25
2023-05-15T03:14:34.577Z,8.23
2023-05-15T03:17:03.105Z,7.90
2023-05-15T03:19:33.188Z,7.50
2023-05-15T03:22:01.663Z,6.55
2023-05-15T03:24:30.333Z,6.70
2023-05-15T03:26:58.794Z,6.82
2023-05-15T03:29:27.360Z,7.05
2023-05-15T03:31:56.023Z,7.22
2023-05-15T03:34:24.664Z,6.68
2023-05-15T03:36:54.571Z,6.32
2023-05-15T03:39:23.154Z,6.18
2023-05-15T03:41:51.754Z,6.97
2023-05-15T03:44:21.121Z,5.47
2023-05-15T03:46:49.802Z,12.25
2023-05-15T03:49:19.589Z,5.10
2023-05-15T03:51:48.103Z,6.07
2023-05-15T03:54:18.360Z,5.30
2023-05-15T03:56:46.934Z,4.22
2023-05-15T03:59:15.515Z,4.00
2023-05-15T04:01:59.409Z,4.47
2023-05-15T04:04:32.404Z,4.03
2023-05-15T04:07:01.014Z,4.95
2023-05-15T04:09:31.047Z,4.28
2023-05-15T04:11:59.551Z,4.53
2023-05-15T04:14:28.006Z,3.40
2023-05-15T04:16:57.448Z,3.67
2023-05-15T04:19:25.867Z,3.50
2023-05-15T04:21:54.351Z,3.72
2023-05-15T04:24:22.873Z,3.20
2023-05-15T04:26:52.937Z,3.30
2023-05-15T04:29:21.514Z,3.35
2023-05-15T04:31:49.984Z,3.03
2023-05-15T04:34:18.587Z,3.47
2023-05-15T04:36:47.129Z,3.53
2023-05-15T04:39:15.570Z,3.20
2023-05-15T04:41:44.002Z,2.90
2023-05-15T04:44:13.932Z,3.90
2023-05-15T04:46:42.405Z,2.03
2023-05-15T04:49:10.939Z,1.85
2023-05-15T04:51:41.583Z,2.30
2023-05-15T04:54:10.152Z,1.80
2023-05-15T04:56:38.634Z,1.80
2023-05-15T04:59:07.113Z,1.90
2023-05-15T05:01:37.485Z,1.65
2023-05-15T05:04:06.196Z,13.32
2023-05-15T05:06:34.741Z,1.42
2023-05-15T05:09:03.415Z,1.50
2023-05-15T05:11:32.193Z,1.73
2023-05-15T05:14:00.717Z,1.40
2023-05-15T05:16:29.254Z,1.42
2023-05-15T05:18:59.132Z,1.50
2023-05-15T05:21:27.689Z,1.30
2023-05-15T05:23:56.255Z,1.70
2023-05-15T05:26:24.976Z,1.40
2023-05-15T05:28:53.606Z,1.42
2023-05-15T05:31:22.447Z,1.70
2023-05-15T05:33:51.515Z,1.70
2023-05-15T05:36:21.476Z,1.42
2023-05-15T05:38:49.998Z,1.42
2023-05-15T05:41:18.455Z,1.13
2023-05-15T05:43:46.943Z,1.60
2023-05-15T05:46:15.707Z,1.27
2023-05-15T05:48:44.228Z,1.20
2023-05-15T05:51:12.741Z,1.42
2023-05-15T05:53:42.670Z,1.40
2023-05-15T05:56:11.365Z,1.33
2023-05-15T05:58:39.904Z,1.10
2023-05-15T06:01:09.132Z,1.70
2023-05-15T06:03:38.359Z,1.30
2023-05-15T06:06:07.767Z,1.67
2023-05-15T06:08:36.373Z,1.52
2023-05-15T06:11:06.550Z,1.40
2023-05-15T06:13:35.113Z,1.35
2023-05-15T06:16:03.727Z,1.52
2023-05-15T06:18:32.234Z,1.13
2023-05-15T06:21:00.780Z,1.00
2023-05-15T06:23:29.573Z,1.17
2023-05-15T06:25:58.145Z,0.93
2023-05-15T06:28:28.226Z,1.70
2023-05-15T06:30:56.964Z,1.42
2023-05-15T06:33:25.992Z,1.33
2023-05-15T06:35:55.519Z,1.20
2023-05-15T06:38:24.103Z,1.30
2023-05-15T06:40:52.596Z,1.35
2023-05-15T06:43:21.296Z,1.30
2023-05-15T06:45:51.624Z,1.05
2023-05-15T06:48:20.193Z,1.33
2023-05-15T06:50:48.729Z,1.20
2023-05-15T06:53:18.765Z,1.30
2023-05-15T06:55:47.211Z,1.70
2023-05-15T06:58:18.053Z,1.70
2023-05-15T07:00:46.605Z,1.20
2023-05-15T07:03:16.886Z,1.20
2023-05-15T07:05:46.337Z,1.13
2023-05-15T07:08:14.834Z,1.15
2023-05-15T07:10:43.303Z,1.10
2023-05-15T07:13:11.820Z,1.52
2023-05-15T07:15:40.957Z,1.60
2023-05-15T07:18:09.638Z,1.30
2023-05-15T07:20:39.874Z,4.32
2023-05-15T07:23:08.559Z,1.20
2023-05-15T07:25:37.213Z,1.40
2023-05-15T07:28:06.147Z,1.40
2023-05-15T07:30:34.714Z,1.63
2023-05-15T07:33:03.478Z,1.50
2023-05-15T07:35:32.015Z,1.20
2023-05-15T07:38:01.986Z,1.55
2023-05-15T07:40:30.900Z,1.42
2023-05-15T07:42:59.524Z,1.48
2023-05-15T07:45:29.000Z,1.67
2023-05-15T07:47:58.946Z,1.42
2023-05-15T07:50:27.476Z,1.52
2023-05-15T07:52:55.964Z,1.40
2023-05-15T07:55:26.125Z,1.40
2023-05-15T07:57:55.502Z,1.40
2023-05-15T08:00:24.021Z,1.25
2023-05-15T08:02:53.049Z,1.92
2023-05-15T08:05:21.927Z,1.33
2023-05-15T08:07:50.881Z,1.70
2023-05-15T08:10:19.405Z,3.35
2023-05-15T08:12:50.586Z,1.98
2023-05-15T08:15:19.344Z,1.50
2023-05-15T08:17:47.992Z,1.10
2023-05-15T08:20:17.571Z,1.10
2023-05-15T08:22:46.039Z,1.20
2023-05-15T08:25:14.559Z,2.30
2023-05-15T08:27:43.041Z,1.30
2023-05-15T08:30:14.582Z,1.00
2023-05-15T08:32:45.877Z,1.50
2023-05-15T08:35:14.749Z,1.00
2023-05-15T08:37:43.666Z,1.13
2023-05-15T08:40:13.454Z,1.30
2023-05-15T08:42:46.140Z,1.00
2023-05-15T08:45:16.362Z,1.13
2023-05-15T08:47:45.059Z,1.52
2023-05-15T08:50:15.590Z,1.20
2023-05-15T08:52:45.724Z,1.00
2023-05-15T08:55:15.330Z,1.60
2023-05-15T08:57:45.225Z,1.20
2023-05-15T09:00:16.531Z,1.17
2023-05-15T09:02:45.486Z,1.35
2023-05-15T09:05:14.186Z,1.50
2023-05-15T09:07:45.117Z,1.42
2023-05-15T09:10:15.154Z,1.55
2023-05-15T09:12:45.685Z,1.00
2023-05-15T09:15:18.174Z,0.90
2023-05-15T09:17:47.962Z,1.30
2023-05-15T09:20:27.866Z,1.02
2023-05-15T09:22:56.534Z,1.33
2023-05-15T09:25:38.904Z,1.10
2023-05-15T09:28:08.757Z,1.15
2023-05-15T09:30:43.057Z,1.00
2023-05-15T09:33:12.197Z,1.15
2023-05-15T09:35:41.898Z,0.90
2023-05-15T09:38:11.762Z,1.15
2023-05-15T09:40:41.666Z,0.90
2023-05-15T09:43:12.321Z,1.10
2023-05-15T09:45:43.289Z,1.20
2023-05-15T09:48:12.565Z,1.20
2023-05-15T09:50:42.600Z,1.13
2023-05-15T09:53:14.090Z,1.08
2023-05-15T09:55:44.270Z,1.70
2023-05-15T09:58:14.473Z,1.90
2023-05-15T10:00:48.173Z,1.60
2023-05-15T10:03:20.912Z,1.10
2023-05-15T10:05:49.785Z,1.17
2023-05-15T10:08:28.551Z,1.05
2023-05-15T10:11:01.401Z,1.30
2023-05-15T10:13:35.649Z,1.23
2023-05-15T10:16:06.708Z,1.10
2023-05-15T10:18:37.394Z,1.13
2023-05-15T10:21:06.326Z,1.15
2023-05-15T10:23:37.687Z,1.00
2023-05-15T10:26:12.605Z,1.00
2023-05-15T10:28:44.725Z,1.73
2023-05-15T10:31:15.504Z,1.40
2023-05-15T10:33:45.420Z,1.25
2023-05-15T10:36:15.856Z,1.42
2023-05-15T10:38:45.203Z,1.63
2023-05-15T10:41:18.341Z,1.10
2023-05-15T10:43:47.560Z,1.20
2023-05-15T10:46:18.264Z,1.10
2023-05-15T10:48:46.960Z,1.10
2023-05-15T10:51:19.473Z,1.48
2023-05-15T10:53:48.040Z,1.10
2023-05-15T10:56:17.898Z,1.25
2023-05-15T10:58:48.599Z,1.33
2023-05-15T11:01:29.476Z,1.40
2023-05-15T11:04:16.573Z,1.35
2023-05-15T11:06:46.699Z,1.15
2023-05-15T11:09:37.658Z,1.23
2023-05-15T11:12:08.116Z,1.10
2023-05-15T11:14:38.743Z,1.20
2023-05-15T11:17:10.118Z,0.90
2023-05-15T11:19:42.244Z,1.25
2023-05-15T11:22:22.014Z,1.02
2023-05-15T11:24:56.646Z,1.13
2023-05-15T11:27:27.176Z,1.00
2023-05-15T11:30:10.078Z,1.27
2023-05-15T11:32:49.997Z,1.75
2023-05-15T11:35:24.290Z,1.00
2023-05-15T11:37:54.432Z,1.05
2023-05-15T11:40:25.923Z,1.20
2023-05-15T11:43:03.277Z,1.20
2023-05-15T11:45:33.075Z,1.00
2023-05-15T11:48:07.532Z,1.40
2023-05-15T11:50:36.941Z,1.95
2023-05-15T11:53:07.278Z,4.15
2023-05-15T11:55:37.183Z,1.60
2023-05-15T11:58:12.379Z,1.75
2023-05-15T12:00:41.104Z,1.13
2023-05-15T12:03:17.420Z,1.10
2023-05-15T12:05:57.628Z,2.15
2023-05-15T12:08:32.020Z,1.33
2023-05-15T12:11:01.739Z,1.08
2023-05-15T12:13:31.904Z,1.85
2023-05-15T12:16:02.002Z,2.13
2023-05-15T12:18:32.519Z,2.67
2023-05-15T12:21:04.970Z,6.05
2023-05-15T12:23:33.819Z,2.13
2023-05-15T12:26:03.961Z,6.03
2023-05-15T12:28:36.430Z,11.40
2023-05-15T12:31:05.355Z,4.13
2023-05-15T12:33:35.480Z,1.50
2023-05-15T12:36:04.291Z,1.90
2023-05-15T12:38:34.342Z,0.90
2023-05-15T12:41:03.087Z,2.10
2023-05-15T12:43:33.375Z,2.53
2023-05-15T12:46:01.902Z,1.50
2023-05-15T12:48:35.116Z,1.50
2023-05-15T12:53:43.710Z,1.70
2023-05-15T12:56:18.001Z,1.05
2023-05-15T12:58:46.958Z,1.25
2023-05-15T13:01:17.491Z,1.70
2023-05-15T13:03:48.816Z,1.38
2023-05-15T13:06:18.270Z,1.63
2023-05-15T13:08:47.849Z,1.13
2023-05-15T13:11:18.476Z,2.00
2023-05-15T13:13:48.249Z,1.70
2023-05-15T13:16:22.010Z,1.23
2023-05-15T13:18:52.223Z,1.48
2023-05-15T13:21:21.073Z,1.20
2023-05-15T13:23:49.863Z,1.80
2023-05-15T13:26:18.390Z,1.40
2023-05-15T13:28:47.299Z,1.20
2023-05-15T13:31:15.880Z,1.10
2023-05-15T13:33:44.665Z,1.27
2023-05-15T13:36:17.497Z,1.40
2023-05-15T13:38:46.637Z,1.42
2023-05-15T13:41:15.188Z,1.25
2023-05-15T13:43:43.973Z,1.10
2023-05-15T13:46:12.541Z,1.33
2023-05-15T13:48:40.982Z,1.02
2023-05-15T13:51:09.503Z,1.27
2023-05-15T13:53:39.612Z,1.02
2023-05-15T13:56:08.463Z,1.08
2023-05-15T13:58:36.968Z,1.38
2023-05-15T14:01:08.052Z,1.30
2023-05-15T14:03:36.984Z,1.58
2023-05-15T14:06:06.356Z,1.10
2023-05-15T14:08:35.074Z,1.23
2023-05-15T14:11:05.007Z,1.25
2023-05-15T14:13:36.211Z,1.25
2023-05-15T14:16:04.796Z,0.98
2023-05-15T14:18:33.342Z,1.50
2023-05-15T14:21:01.944Z,1.10
2023-05-15T14:23:30.410Z,7.53
2023-05-15T14:25:58.882Z,2.33
2023-05-15T14:28:28.736Z,2.17
2023-05-15T14:30:57.264Z,1.23
2023-05-15T14:33:27.677Z,1.50
2023-05-15T14:35:56.130Z,1.13
2023-05-15T14:38:24.605Z,2.15
2023-05-15T14:40:53.230Z,1.50
2023-05-15T14:43:21.722Z,6.93
2023-05-15T14:45:51.681Z,1.40
2023-05-15T14:48:21.031Z,1.30
2023-05-15T14:50:49.564Z,1.30
2023-05-15T14:53:18.063Z,1.35
2023-05-15T14:55:46.504Z,1.25
2023-05-15T14:58:14.986Z,1.63
2023-05-15T15:00:43.589Z,1.67
2023-05-15T15:03:13.519Z,1.40
2023-05-15T15:05:42.103Z,2.05
2023-05-15T15:08:12.551Z,1.52
2023-05-15T15:10:43.506Z,1.00
2023-05-15T15:13:13.728Z,1.35
2023-05-15T15:15:42.267Z,1.00
2023-05-15T15:18:11.328Z,1.33
2023-05-15T15:20:43.312Z,1.67
2023-05-15T15:23:11.853Z,1.20
2023-05-15T15:25:40.434Z,1.38
2023-05-15T15:28:09.058Z,1.50
2023-05-15T15:30:37.905Z,1.05
2023-05-15T15:33:06.485Z,1.70
2023-05-15T15:35:35.008Z,1.27
2023-05-15T15:38:05.520Z,1.00
2023-05-15T15:40:34.022Z,1.10
2023-05-15T15:43:02.729Z,1.60
2023-05-15T15:45:31.281Z,1.10
2023-05-15T15:48:00.010Z,1.20
2023-05-15T15:50:28.740Z,4.72
2023-05-15T15:52:57.457Z,2.38
2023-05-15T15:55:27.719Z,1.30
2023-05-15T15:58:20.235Z,2.15
2023-05-15T16:00:49.240Z,1.52
2023-05-15T16:03:17.989Z,3.13
2023-05-15T16:05:46.627Z,4.38
2023-05-15T16:08:15.134Z,4.13
2023-05-15T16:10:45.093Z,2.92
2023-05-15T16:13:13.581Z,3.65
2023-05-15T16:15:42.182Z,2.10
2023-05-15T16:18:10.729Z,1.20
2023-05-15T16:20:39.367Z,1.45
2023-05-15T16:23:09.560Z,1.13
2023-05-15T16:25:38.275Z,1.20
2023-05-15T16:28:09.921Z,1.30
2023-05-15T16:30:48.099Z,1.13
2023-05-15T16:33:18.720Z,4.78
2023-05-15T16:35:47.661Z,3.03
2023-05-15T16:38:17.319Z,3.38
2023-05-15T16:40:45.922Z,3.47
2023-05-15T16:43:16.548Z,3.70
2023-05-15T16:45:46.370Z,2.95
2023-05-15T16:48:15.089Z,2.25
2023-05-15T16:50:43.684Z,3.20
2023-05-15T16:53:12.491Z,3.17
2023-05-15T16:55:41.046Z,4.10
2023-05-15T16:58:09.858Z,9.82
2023-05-15T17:00:39.837Z,6.28
2023-05-15T17:03:09.055Z,2.88
2023-05-15T17:05:37.896Z,2.40
2023-05-15T17:08:06.757Z,3.20
2023-05-15T17:10:35.365Z,2.60
2023-05-15T17:13:04.722Z,3.30
2023-05-15T17:15:33.250Z,3.22
2023-05-15T17:18:03.293Z,2.17
2023-05-15T17:20:31.853Z,2.60
2023-05-15T17:23:00.346Z,2.17
2023-05-15T17:25:29.220Z,3.47
2023-05-15T17:27:57.747Z,3.42
2023-05-15T17:30:26.283Z,2.60
2023-05-15T17:32:55.111Z,1.80
2023-05-15T17:35:25.477Z,1.83
2023-05-15T17:37:54.156Z,2.00
2023-05-15T17:40:22.748Z,2.05
2023-05-15T17:42:51.453Z,2.42
2023-05-15T17:45:20.128Z,2.33
2023-05-15T17:47:49.312Z,4.10
2023-05-15T17:50:18.001Z,6.15
2023-05-15T17:52:47.972Z,8.30
2023-05-15T17:55:16.561Z,7.47
2023-05-15T17:57:45.097Z,6.85
2023-05-15T18:00:14.828Z,7.03
2023-05-15T18:02:44.043Z,7.57
2023-05-15T18:05:12.549Z,8.15
2023-05-15T18:07:42.360Z,6.18
2023-05-15T18:10:12.905Z,6.07
2023-05-15T18:12:41.389Z,5.78
2023-05-15T18:15:10.812Z,5.68
2023-05-15T18:17:39.376Z,5.60
2023-05-15T18:20:09.110Z,5.50
2023-05-15T18:22:37.670Z,5.30
2023-05-15T18:25:06.924Z,5.13
2023-05-15T18:27:36.842Z,5.22
2023-05-15T18:30:05.891Z,4.95
2023-05-15T18:32:34.593Z,5.55
2023-05-15T18:35:03.368Z,5.20
2023-05-15T18:37:33.385Z,5.40
2023-05-15T18:40:01.984Z,5.90
2023-05-15T18:42:34.804Z,5.72
2023-05-15T18:45:05.082Z,5.75
2023-05-15T18:47:34.873Z,7.15
2023-05-15T18:50:03.457Z,7.40
2023-05-15T18:52:33.391Z,7.32
2023-05-15T18:55:01.922Z,6.20
2023-05-15T18:57:33.395Z,6.65
2023-05-15T19:00:07.095Z,6.78
2023-05-15T19:02:40.255Z,6.30
2023-05-15T19:05:09.649Z,5.55
2023-05-15T19:07:38.965Z,5.97
2023-05-15T19:10:09.106Z,5.25
2023-05-15T19:12:37.738Z,5.22
2023-05-15T19:15:09.943Z,4.80
2023-05-15T19:17:38.488Z,4.82
2023-05-15T19:20:08.773Z,4.93
2023-05-15T19:22:37.272Z,4.03
2023-05-15T19:25:06.432Z,3.65
2023-05-15T19:27:34.962Z,3.80
2023-05-15T19:30:03.516Z,4.10
2023-05-15T19:32:34.524Z,5.30
2023-05-15T19:35:03.381Z,4.88
2023-05-15T19:37:32.327Z,6.18
2023-05-15T19:40:00.857Z,6.35
2023-05-15T19:42:29.433Z,8.50
2023-05-15T19:44:58.021Z,6.80
2023-05-15T19:47:27.567Z,6.40
2023-05-15T19:49:57.724Z,6.80
2023-05-15T19:52:26.273Z,6.30
2023-05-15T19:54:54.809Z,5.32
2023-05-15T19:57:23.300Z,4.75
2023-05-15T19:59:51.845Z,5.85
2023-05-15T20:02:20.456Z,4.20
2023-05-15T20:04:49.069Z,6.85
2023-05-15T20:07:21.781Z,9.38
2023-05-15T20:09:51.256Z,6.72
2023-05-15T20:12:19.900Z,6.40
2023-05-15T20:14:50.390Z,5.25
2023-05-15T20:17:18.976Z,4.35
2023-05-15T20:19:50.632Z,5.13
2023-05-15T20:22:20.930Z,5.22
2023-05-15T20:24:52.573Z,4.60
2023-05-15T20:27:21.094Z,4.13
2023-05-15T20:29:49.608Z,5.07
2023-05-15T20:32:18.218Z,4.53
2023-05-15T20:34:48.425Z,4.28
2023-05-15T20:37:17.785Z,4.30
2023-05-15T20:39:47.748Z,4.32
2023-05-15T20:42:16.337Z,5.72
2023-05-15T20:44:48.059Z,5.40
2023-05-15T20:47:16.566Z,5.45
2023-05-15T20:49:45.372Z,4.57
2023-05-15T20:52:13.983Z,5.07
2023-05-15T20:54:47.210Z,5.20
2023-05-15T20:57:17.881Z,5.22
2023-05-15T20:59:46.476Z,6.18
2023-05-15T21:02:15.192Z,5.32
2023-05-15T21:04:46.713Z,5.53
2023-05-15T21:07:16.176Z,5.18
2023-05-15T21:09:46.229Z,5.18
2023-05-15T21:12:16.254Z,5.45
2023-05-15T21:14:44.741Z,5.22
2023-05-15T21:17:13.436Z,4.85
2023-05-15T21:19:42.042Z,5.50
2023-05-15T21:22:10.497Z,5.90
2023-05-15T21:24:38.988Z,6.05
2023-05-15T21:27:07.801Z,6.05
2023-05-15T21:29:37.779Z,5.72
2023-05-15T21:32:07.384Z,5.50
2023-05-15T21:34:37.051Z,5.90
2023-05-15T21:37:05.784Z,5.70
2023-05-15T21:39:34.294Z,5.57
2023-05-15T21:42:02.804Z,5.38
2023-05-15T21:44:31.446Z,5.50
2023-05-15T21:47:01.461Z,5.25
2023-05-15T21:49:30.046Z,5.78
2023-05-15T21:51:58.563Z,5.00
2023-05-15T21:54:26.999Z,5.28
2023-05-15T21:56:55.539Z,5.55
2023-05-15T21:59:24.484Z,5.72
2023-05-15T22:01:53.092Z,6.15
2023-05-15T22:04:23.256Z,5.65
2023-05-15T22:06:51.753Z,5.53
2023-05-15T22:09:20.252Z,5.78
2023-05-15T22:11:53.245Z,5.68
2023-05-15T22:14:21.750Z,6.13
2023-05-15T22:16:51.573Z,6.40
2023-05-15T22:19:32.187Z,6.85
2023-05-15T22:22:04.595Z,7.28
2023-05-15T22:24:33.149Z,6.45
2023-05-15T22:27:04.022Z,6.90
2023-05-15T22:29:32.517Z,6.75
2023-05-15T22:32:01.157Z,6.90
2023-05-15T22:34:30.162Z,7.28
2023-05-15T22:36:58.802Z,7.53
2023-05-15T22:39:28.731Z,7.10
2023-05-15T22:41:57.573Z,7.38
2023-05-15T22:44:26.059Z,7.43
2023-05-15T22:46:54.559Z,7.55
2023-05-15T22:49:25.583Z,7.35
2023-05-15T22:51:56.925Z,6.53
2023-05-15T22:54:44.010Z,7.10
2023-05-15T22:57:13.896Z,7.25
2023-05-15T22:59:42.809Z,6.82
2023-05-15T23:02:11.420Z,7.97
2023-05-15T23:04:39.963Z,6.32
2023-05-15T23:07:08.563Z,7.32
2023-05-15T23:09:37.025Z,6.60
2023-05-15T23:12:06.265Z,6.70
2023-05-15T23:14:36.166Z,8.23
2023-05-15T23:17:04.852Z,8.18
2023-05-15T23:19:33.318Z,9.05
2023-05-15T23:22:02.316Z,7.43
2023-05-15T23:24:31.038Z,8.32
2023-05-15T23:27:01.457Z,7.82
2023-05-15T23:29:30.014Z,7.75
2023-05-15T23:31:59.902Z,7.60
2023-05-15T23:34:30.088Z,7.70
2023-05-15T23:36:58.715Z,6.78
2023-05-15T23:39:27.724Z,7.70
2023-05-15T23:41:57.178Z,5.97
2023-05-15T23:44:26.693Z,6.25
2023-05-15T23:46:55.181Z,5.43
2023-05-15T23:49:25.065Z,5.72
2023-05-15T23:51:53.539Z,6.32
2023-05-15T23:54:22.089Z,5.60
2023-05-15T23:56:50.577Z,6.10
2023-05-15T23:59:19.209Z,6.35
